sensor_id;sensor_type;location;lat;lon;timestamp;P1;durP1;ratioP1;P2;durP2;ratioP2
38865;SDS011;62686;48.984;8.394;2023-02-28T00:01:36;5.70;;;3.60;;
38865;SDS011;62686;48.984;8.394;2023-02-28T00:04:04;5.17;;;3.80;;
38865;SDS011;62686;48.984;8.394;2023-02-28T00:06:32;4.90;;;3.70;;
38865;SDS011;62686;48.984;8.394;2023-02-28T00:09:00;7.67;;;3.60;;
38865;SDS011;62686;48.984;8.394;2023-02-28T00:11:29;4.63;;;3.30;;
38865;SDS011;62686;48.984;8.394;2023-02-28T00:13:58;4.07;;;3.10;;
38865;SDS011;62686;48.984;8.394;2023-02-28T00:16:27;3.83;;;3.37;;
38865;SDS011;62686;48.984;8.394;2023-02-28T00:18:55;3.60;;;3.30;;
38865;SDS011;62686;48.984;8.394;2023-02-28T00:21:23;4.83;;;3.43;;
38865;SDS011;62686;48.984;8.394;2023-02-28T00:23:51;6.47;;;3.80;;
38865;SDS011;62686;48.984;8.394;2023-02-28T00:26:19;3.90;;;3.50;;
38865;SDS011;62686;48.984;8.394;2023-02-28T00:28:48;8.43;;;3.73;;
38865;SDS011;62686;48.984;8.394;2023-02-28T00:31:17;3.90;;;3.37;;
38865;SDS011;62686;48.984;8.394;2023-02-28T00:33:46;3.93;;;3.23;;
38865;SDS011;62686;48.984;8.394;2023-02-28T00:36:14;7.13;;;3.53;;
38865;SDS011;62686;48.984;8.394;2023-02-28T00:38:42;5.33;;;3.70;;
38865;SDS011;62686;48.984;8.394;2023-02-28T00:41:10;3.63;;;3.27;;
38865;SDS011;62686;48.984;8.394;2023-02-28T00:43:38;3.90;;;3.50;;
38865;SDS011;62686;48.984;8.394;2023-02-28T00:46:07;4.83;;;3.23;;
38865;SDS011;62686;48.984;8.394;2023-02-28T00:48:37;5.20;;;3.63;;
38865;SDS011;62686;48.984;8.394;2023-02-28T00:51:05;5.27;;;3.50;;
38865;SDS011;62686;48.984;8.394;2023-02-28T00:53:33;4.53;;;4.00;;
38865;SDS011;62686;48.984;8.394;2023-02-28T00:56:02;3.83;;;3.10;;
38865;SDS011;62686;48.984;8.394;2023-02-28T00:58:30;5.57;;;3.70;;
38865;SDS011;62686;48.984;8.394;2023-02-28T01:00:59;4.93;;;3.50;;
38865;SDS011;62686;48.984;8.394;2023-02-28T01:03:27;5.03;;;3.80;;
38865;SDS011;62686;48.984;8.394;2023-02-28T01:05:57;5.03;;;3.80;;
38865;SDS011;62686;48.984;8.394;2023-02-28T01:08:26;4.77;;;3.70;;
38865;SDS011;62686;48.984;8.394;2023-02-28T01:10:54;4.00;;;3.47;;
38865;SDS011;62686;48.984;8.394;2023-02-28T01:13:22;3.97;;;3.27;;
38865;SDS011;62686;48.984;8.394;2023-02-28T01:15:52;6.40;;;3.73;;
38865;SDS011;62686;48.984;8.394;2023-02-28T01:18:23;4.67;;;3.10;;
38865;SDS011;62686;48.984;8.394;2023-02-28T01:20:52;3.67;;;3.10;;
38865;SDS011;62686;48.984;8.394;2023-02-28T01:23:22;4.53;;;3.40;;
38865;SDS011;62686;48.984;8.394;2023-02-28T01:25:51;4.60;;;3.77;;
38865;SDS011;62686;48.984;8.394;2023-02-28T01:28:20;5.23;;;3.33;;
38865;SDS011;62686;48.984;8.394;2023-02-28T01:30:48;4.47;;;3.30;;
38865;SDS011;62686;48.984;8.394;2023-02-28T01:33:17;4.20;;;3.40;;
38865;SDS011;62686;48.984;8.394;2023-02-28T01:35:45;4.10;;;3.33;;
38865;SDS011;62686;48.984;8.394;2023-02-28T01:38:14;5.90;;;3.30;;
38865;SDS011;62686;48.984;8.394;2023-02-28T01:40:51;5.07;;;3.70;;
38865;SDS011;62686;48.984;8.394;2023-02-28T01:43:21;5.10;;;3.70;;
38865;SDS011;62686;48.984;8.394;2023-02-28T01:45:50;4.00;;;3.30;;
38865;SDS011;62686;48.984;8.394;2023-02-28T01:48:20;4.03;;;3.30;;
38865;SDS011;62686;48.984;8.394;2023-02-28T01:50:52;5.00;;;3.90;;
38865;SDS011;62686;48.984;8.394;2023-02-28T01:53:26;5.17;;;4.00;;
38865;SDS011;62686;48.984;8.394;2023-02-28T01:56:01;4.67;;;3.67;;
38865;SDS011;62686;48.984;8.394;2023-02-28T01:58:34;4.00;;;3.37;;
38865;SDS011;62686;48.984;8.394;2023-02-28T02:01:03;4.20;;;3.47;;
38865;SDS011;62686;48.984;8.394;2023-02-28T02:03:32;5.77;;;3.47;;
38865;SDS011;62686;48.984;8.394;2023-02-28T02:06:03;5.87;;;3.57;;
38865;SDS011;62686;48.984;8.394;2023-02-28T02:08:31;4.10;;;3.37;;
38865;SDS011;62686;48.984;8.394;2023-02-28T02:11:00;4.43;;;3.60;;
38865;SDS011;62686;48.984;8.394;2023-02-28T02:13:50;4.93;;;3.50;;
38865;SDS011;62686;48.984;8.394;2023-02-28T02:16:35;5.80;;;3.93;;
38865;SDS011;62686;48.984;8.394;2023-02-28T02:19:14;6.87;;;4.13;;
38865;SDS011;62686;48.984;8.394;2023-02-28T02:22:05;5.93;;;4.47;;
38865;SDS011;62686;48.984;8.394;2023-02-28T02:24:58;5.43;;;3.90;;
38865;SDS011;62686;48.984;8.394;2023-02-28T02:27:48;5.03;;;4.10;;
38865;SDS011;62686;48.984;8.394;2023-02-28T02:33:45;5.23;;;4.27;;
38865;SDS011;62686;48.984;8.394;2023-02-28T02:36:48;5.40;;;4.23;;
38865;SDS011;62686;48.984;8.394;2023-02-28T02:39:21;5.57;;;4.10;;
38865;SDS011;62686;48.984;8.394;2023-02-28T02:41:59;5.63;;;4.30;;
38865;SDS011;62686;48.984;8.394;2023-02-28T02:44:30;4.57;;;3.70;;
38865;SDS011;62686;48.984;8.394;2023-02-28T02:47:02;5.77;;;4.33;;
38865;SDS011;62686;48.984;8.394;2023-02-28T02:49:35;7.67;;;4.73;;
38865;SDS011;62686;48.984;8.394;2023-02-28T02:52:08;6.57;;;4.43;;
38865;SDS011;62686;48.984;8.394;2023-02-28T02:54:40;6.23;;;4.60;;
38865;SDS011;62686;48.984;8.394;2023-02-28T02:57:12;4.87;;;4.17;;
38865;SDS011;62686;48.984;8.394;2023-02-28T02:59:44;5.90;;;4.30;;
38865;SDS011;62686;48.984;8.394;2023-02-28T03:02:15;5.97;;;4.30;;
38865;SDS011;62686;48.984;8.394;2023-02-28T03:04:46;7.47;;;4.33;;
38865;SDS011;62686;48.984;8.394;2023-02-28T03:07:20;5.13;;;4.37;;
38865;SDS011;62686;48.984;8.394;2023-02-28T03:09:52;5.97;;;4.27;;
38865;SDS011;62686;48.984;8.394;2023-02-28T03:12:21;6.30;;;4.50;;
38865;SDS011;62686;48.984;8.394;2023-02-28T03:14:56;6.03;;;4.47;;
38865;SDS011;62686;48.984;8.394;2023-02-28T03:17:40;5.80;;;4.50;;
38865;SDS011;62686;48.984;8.394;2023-02-28T03:20:18;6.13;;;4.60;;
38865;SDS011;62686;48.984;8.394;2023-02-28T03:23:00;6.17;;;4.37;;
38865;SDS011;62686;48.984;8.394;2023-02-28T03:25:37;4.87;;;4.20;;
38865;SDS011;62686;48.984;8.394;2023-02-28T03:28:15;6.40;;;4.40;;
38865;SDS011;62686;48.984;8.394;2023-02-28T03:30:50;5.40;;;4.43;;
38865;SDS011;62686;48.984;8.394;2023-02-28T03:33:26;5.90;;;4.30;;
38865;SDS011;62686;48.984;8.394;2023-02-28T03:35:58;5.10;;;4.03;;
38865;SDS011;62686;48.984;8.394;2023-02-28T03:38:35;5.43;;;4.10;;
38865;SDS011;62686;48.984;8.394;2023-02-28T03:41:09;6.23;;;4.50;;
38865;SDS011;62686;48.984;8.394;2023-02-28T03:43:43;5.30;;;4.03;;
38865;SDS011;62686;48.984;8.394;2023-02-28T03:46:16;4.77;;;4.07;;
38865;SDS011;62686;48.984;8.394;2023-02-28T03:48:49;4.97;;;3.93;;
38865;SDS011;62686;48.984;8.394;2023-02-28T03:51:21;5.50;;;4.23;;
38865;SDS011;62686;48.984;8.394;2023-02-28T03:53:53;5.23;;;3.83;;
38865;SDS011;62686;48.984;8.394;2023-02-28T03:56:26;6.73;;;4.37;;
38865;SDS011;62686;48.984;8.394;2023-02-28T03:58:58;5.53;;;4.53;;
38865;SDS011;62686;48.984;8.394;2023-02-28T04:01:34;6.40;;;4.43;;
38865;SDS011;62686;48.984;8.394;2023-02-28T04:04:07;5.60;;;4.43;;
38865;SDS011;62686;48.984;8.394;2023-02-28T04:06:36;4.87;;;4.13;;
38865;SDS011;62686;48.984;8.394;2023-02-28T04:09:07;4.67;;;4.10;;
38865;SDS011;62686;48.984;8.394;2023-02-28T04:11:37;6.80;;;4.10;;
38865;SDS011;62686;48.984;8.394;2023-02-28T04:14:06;8.30;;;4.43;;
38865;SDS011;62686;48.984;8.394;2023-02-28T04:16:36;6.60;;;4.63;;
38865;SDS011;62686;48.984;8.394;2023-02-28T04:19:06;7.37;;;4.43;;
38865;SDS011;62686;48.984;8.394;2023-02-28T04:21:36;7.00;;;4.70;;
38865;SDS011;62686;48.984;8.394;2023-02-28T04:24:08;7.90;;;4.20;;
38865;SDS011;62686;48.984;8.394;2023-02-28T04:26:41;4.57;;;4.10;;
38865;SDS011;62686;48.984;8.394;2023-02-28T04:29:11;6.70;;;4.37;;
38865;SDS011;62686;48.984;8.394;2023-02-28T04:31:41;6.17;;;4.47;;
38865;SDS011;62686;48.984;8.394;2023-02-28T04:34:09;6.20;;;4.13;;
38865;SDS011;62686;48.984;8.394;2023-02-28T04:36:37;6.50;;;4.80;;
38865;SDS011;62686;48.984;8.394;2023-02-28T04:39:06;7.33;;;4.63;;
38865;SDS011;62686;48.984;8.394;2023-02-28T04:41:36;5.80;;;4.77;;
38865;SDS011;62686;48.984;8.394;2023-02-28T04:44:04;6.47;;;4.63;;
38865;SDS011;62686;48.984;8.394;2023-02-28T04:46:32;5.77;;;4.07;;
38865;SDS011;62686;48.984;8.394;2023-02-28T04:49:00;6.40;;;4.80;;
38865;SDS011;62686;48.984;8.394;2023-02-28T04:51:29;7.43;;;4.70;;
38865;SDS011;62686;48.984;8.394;2023-02-28T04:53:57;6.47;;;4.70;;
38865;SDS011;62686;48.984;8.394;2023-02-28T04:56:27;6.80;;;5.07;;
38865;SDS011;62686;48.984;8.394;2023-02-28T04:58:55;6.87;;;4.97;;
38865;SDS011;62686;48.984;8.394;2023-02-28T05:01:24;5.90;;;4.40;;
38865;SDS011;62686;48.984;8.394;2023-02-28T05:03:54;8.57;;;5.30;;
38865;SDS011;62686;48.984;8.394;2023-02-28T05:06:24;7.60;;;4.60;;
38865;SDS011;62686;48.984;8.394;2023-02-28T05:08:54;5.83;;;5.13;;
38865;SDS011;62686;48.984;8.394;2023-02-28T05:11:23;5.60;;;4.97;;
38865;SDS011;62686;48.984;8.394;2023-02-28T05:13:55;6.30;;;5.30;;
38865;SDS011;62686;48.984;8.394;2023-02-28T05:16:23;6.83;;;5.23;;
38865;SDS011;62686;48.984;8.394;2023-02-28T05:18:51;6.80;;;4.77;;
38865;SDS011;62686;48.984;8.394;2023-02-28T05:21:22;7.20;;;5.20;;
38865;SDS011;62686;48.984;8.394;2023-02-28T05:23:54;5.70;;;4.73;;
38865;SDS011;62686;48.984;8.394;2023-02-28T05:26:23;7.60;;;4.83;;
38865;SDS011;62686;48.984;8.394;2023-02-28T05:28:51;7.30;;;5.43;;
38865;SDS011;62686;48.984;8.394;2023-02-28T05:31:21;7.30;;;5.43;;
38865;SDS011;62686;48.984;8.394;2023-02-28T05:33:49;8.17;;;5.07;;
38865;SDS011;62686;48.984;8.394;2023-02-28T05:36:18;8.23;;;5.20;;
38865;SDS011;62686;48.984;8.394;2023-02-28T05:38:47;6.10;;;4.90;;
38865;SDS011;62686;48.984;8.394;2023-02-28T05:41:16;6.53;;;5.20;;
38865;SDS011;62686;48.984;8.394;2023-02-28T05:43:45;7.63;;;5.90;;
38865;SDS011;62686;48.984;8.394;2023-02-28T05:46:14;6.50;;;5.07;;
38865;SDS011;62686;48.984;8.394;2023-02-28T05:48:45;6.67;;;5.37;;
38865;SDS011;62686;48.984;8.394;2023-02-28T05:51:15;8.07;;;5.40;;
38865;SDS011;62686;48.984;8.394;2023-02-28T05:53:43;7.67;;;5.17;;
38865;SDS011;62686;48.984;8.394;2023-02-28T05:56:12;5.57;;;4.83;;
38865;SDS011;62686;48.984;8.394;2023-02-28T05:58:40;7.33;;;5.20;;
38865;SDS011;62686;48.984;8.394;2023-02-28T06:04:06;6.80;;;5.70;;
38865;SDS011;62686;48.984;8.394;2023-02-28T06:09:23;7.37;;;5.63;;
38865;SDS011;62686;48.984;8.394;2023-02-28T06:11:51;8.67;;;6.30;;
38865;SDS011;62686;48.984;8.394;2023-02-28T06:14:20;9.33;;;5.63;;
38865;SDS011;62686;48.984;8.394;2023-02-28T06:16:49;6.93;;;5.73;;
38865;SDS011;62686;48.984;8.394;2023-02-28T06:19:18;6.70;;;5.37;;
38865;SDS011;62686;48.984;8.394;2023-02-28T06:21:48;7.47;;;5.40;;
38865;SDS011;62686;48.984;8.394;2023-02-28T06:24:19;7.10;;;5.30;;
38865;SDS011;62686;48.984;8.394;2023-02-28T06:26:48;9.80;;;5.60;;
38865;SDS011;62686;48.984;8.394;2023-02-28T06:29:17;8.83;;;5.10;;
38865;SDS011;62686;48.984;8.394;2023-02-28T06:31:45;8.33;;;5.47;;
38865;SDS011;62686;48.984;8.394;2023-02-28T06:34:15;8.00;;;5.33;;
38865;SDS011;62686;48.984;8.394;2023-02-28T06:36:45;8.50;;;5.73;;
38865;SDS011;62686;48.984;8.394;2023-02-28T06:39:13;7.33;;;5.20;;
38865;SDS011;62686;48.984;8.394;2023-02-28T06:41:42;10.17;;;5.70;;
38865;SDS011;62686;48.984;8.394;2023-02-28T06:44:20;8.07;;;5.63;;
38865;SDS011;62686;48.984;8.394;2023-02-28T06:46:49;9.37;;;6.00;;
38865;SDS011;62686;48.984;8.394;2023-02-28T06:49:17;7.23;;;5.70;;
38865;SDS011;62686;48.984;8.394;2023-02-28T06:51:47;6.57;;;5.07;;
38865;SDS011;62686;48.984;8.394;2023-02-28T06:54:16;7.30;;;5.40;;
38865;SDS011;62686;48.984;8.394;2023-02-28T06:56:44;5.80;;;4.77;;
38865;SDS011;62686;48.984;8.394;2023-02-28T06:59:13;7.50;;;5.60;;
38865;SDS011;62686;48.984;8.394;2023-02-28T07:04:12;6.67;;;4.97;;
38865;SDS011;62686;48.984;8.394;2023-02-28T07:06:40;8.47;;;5.63;;
38865;SDS011;62686;48.984;8.394;2023-02-28T07:09:10;7.07;;;5.20;;
38865;SDS011;62686;48.984;8.394;2023-02-28T07:11:38;7.20;;;5.67;;
38865;SDS011;62686;48.984;8.394;2023-02-28T07:14:07;14.33;;;6.80;;
38865;SDS011;62686;48.984;8.394;2023-02-28T07:16:35;7.13;;;5.00;;
38865;SDS011;62686;48.984;8.394;2023-02-28T07:19:03;8.40;;;6.03;;
38865;SDS011;62686;48.984;8.394;2023-02-28T07:21:32;9.30;;;5.83;;
38865;SDS011;62686;48.984;8.394;2023-02-28T07:24:03;7.03;;;5.20;;
38865;SDS011;62686;48.984;8.394;2023-02-28T07:29:32;7.00;;;5.20;;
38865;SDS011;62686;48.984;8.394;2023-02-28T07:32:00;6.97;;;5.30;;
38865;SDS011;62686;48.984;8.394;2023-02-28T07:34:28;9.23;;;6.10;;
38865;SDS011;62686;48.984;8.394;2023-02-28T07:36:57;9.17;;;5.40;;
38865;SDS011;62686;48.984;8.394;2023-02-28T07:39:26;7.80;;;5.27;;
38865;SDS011;62686;48.984;8.394;2023-02-28T07:41:57;6.90;;;5.33;;
38865;SDS011;62686;48.984;8.394;2023-02-28T07:44:26;8.03;;;5.60;;
38865;SDS011;62686;48.984;8.394;2023-02-28T07:46:55;6.53;;;5.10;;
38865;SDS011;62686;48.984;8.394;2023-02-28T07:49:44;9.23;;;5.97;;
38865;SDS011;62686;48.984;8.394;2023-02-28T07:52:12;7.17;;;4.73;;
38865;SDS011;62686;48.984;8.394;2023-02-28T07:57:22;6.87;;;5.40;;
38865;SDS011;62686;48.984;8.394;2023-02-28T08:32:20;7.37;;;5.77;;
38865;SDS011;62686;48.984;8.394;2023-02-28T08:40:30;9.07;;;5.67;;
38865;SDS011;62686;48.984;8.394;2023-02-28T08:42:58;8.50;;;5.83;;
38865;SDS011;62686;48.984;8.394;2023-02-28T08:45:27;9.53;;;6.67;;
38865;SDS011;62686;48.984;8.394;2023-02-28T08:47:56;9.70;;;5.80;;
38865;SDS011;62686;48.984;8.394;2023-02-28T08:50:25;9.17;;;5.97;;
38865;SDS011;62686;48.984;8.394;2023-02-28T08:52:53;7.73;;;6.13;;
38865;SDS011;62686;48.984;8.394;2023-02-28T08:55:21;9.27;;;5.83;;
38865;SDS011;62686;48.984;8.394;2023-02-28T08:57:50;6.27;;;5.30;;
38865;SDS011;62686;48.984;8.394;2023-02-28T09:03:02;9.83;;;6.47;;
38865;SDS011;62686;48.984;8.394;2023-02-28T09:05:30;8.70;;;5.77;;
38865;SDS011;62686;48.984;8.394;2023-02-28T09:07:59;8.90;;;5.73;;
38865;SDS011;62686;48.984;8.394;2023-02-28T09:10:27;8.03;;;5.90;;
38865;SDS011;62686;48.984;8.394;2023-02-28T09:12:55;7.10;;;5.60;;
38865;SDS011;62686;48.984;8.394;2023-02-28T09:15:23;8.50;;;5.93;;
38865;SDS011;62686;48.984;8.394;2023-02-28T09:20:49;11.33;;;6.73;;
38865;SDS011;62686;48.984;8.394;2023-02-28T09:26:06;8.07;;;6.20;;
38865;SDS011;62686;48.984;8.394;2023-02-28T09:28:37;9.87;;;6.30;;
38865;SDS011;62686;48.984;8.394;2023-02-28T09:31:05;7.43;;;5.43;;
38865;SDS011;62686;48.984;8.394;2023-02-28T09:33:33;11.30;;;6.20;;
38865;SDS011;62686;48.984;8.394;2023-02-28T09:36:03;9.10;;;6.07;;
38865;SDS011;62686;48.984;8.394;2023-02-28T09:41:13;10.37;;;6.47;;
38865;SDS011;62686;48.984;8.394;2023-02-28T09:43:44;9.70;;;6.30;;
38865;SDS011;62686;48.984;8.394;2023-02-28T09:46:19;9.10;;;5.93;;
38865;SDS011;62686;48.984;8.394;2023-02-28T09:48:55;8.87;;;6.13;;
38865;SDS011;62686;48.984;8.394;2023-02-28T09:51:30;8.27;;;6.13;;
38865;SDS011;62686;48.984;8.394;2023-02-28T09:54:05;8.20;;;6.07;;
38865;SDS011;62686;48.984;8.394;2023-02-28T09:56:36;8.30;;;6.43;;
38865;SDS011;62686;48.984;8.394;2023-02-28T09:59:10;10.10;;;6.90;;
38865;SDS011;62686;48.984;8.394;2023-02-28T10:01:47;9.73;;;6.27;;
38865;SDS011;62686;48.984;8.394;2023-02-28T10:04:26;8.77;;;6.50;;
38865;SDS011;62686;48.984;8.394;2023-02-28T10:07:12;9.40;;;6.13;;
38865;SDS011;62686;48.984;8.394;2023-02-28T10:23:23;9.13;;;6.33;;
38865;SDS011;62686;48.984;8.394;2023-02-28T10:25:55;8.20;;;6.47;;
38865;SDS011;62686;48.984;8.394;2023-02-28T10:28:27;9.47;;;6.87;;
38865;SDS011;62686;48.984;8.394;2023-02-28T10:30:58;9.60;;;7.07;;
38865;SDS011;62686;48.984;8.394;2023-02-28T10:33:28;8.83;;;7.00;;
38865;SDS011;62686;48.984;8.394;2023-02-28T10:35:58;9.50;;;6.67;;
38865;SDS011;62686;48.984;8.394;2023-02-28T10:38:31;9.57;;;6.13;;
38865;SDS011;62686;48.984;8.394;2023-02-28T10:41:06;9.33;;;6.70;;
38865;SDS011;62686;48.984;8.394;2023-02-28T10:43:35;9.50;;;6.93;;
38865;SDS011;62686;48.984;8.394;2023-02-28T10:49:00;9.57;;;6.57;;
38865;SDS011;62686;48.984;8.394;2023-02-28T10:51:34;9.63;;;6.90;;
38865;SDS011;62686;48.984;8.394;2023-02-28T10:54:05;9.83;;;6.90;;
38865;SDS011;62686;48.984;8.394;2023-02-28T10:56:42;10.13;;;7.10;;
38865;SDS011;62686;48.984;8.394;2023-02-28T10:59:22;9.67;;;6.87;;
38865;SDS011;62686;48.984;8.394;2023-02-28T11:01:55;9.20;;;6.47;;
38865;SDS011;62686;48.984;8.394;2023-02-28T11:04:32;8.27;;;6.40;;
38865;SDS011;62686;48.984;8.394;2023-02-28T11:07:06;12.23;;;6.77;;
38865;SDS011;62686;48.984;8.394;2023-02-28T11:09:48;8.50;;;6.87;;
38865;SDS011;62686;48.984;8.394;2023-02-28T11:12:19;7.00;;;6.03;;
38865;SDS011;62686;48.984;8.394;2023-02-28T11:14:49;9.30;;;7.00;;
38865;SDS011;62686;48.984;8.394;2023-02-28T11:17:20;9.00;;;6.10;;
38865;SDS011;62686;48.984;8.394;2023-02-28T11:19:50;15.17;;;6.83;;
38865;SDS011;62686;48.984;8.394;2023-02-28T11:22:21;8.30;;;6.33;;
38865;SDS011;62686;48.984;8.394;2023-02-28T11:24:57;9.90;;;7.37;;
38865;SDS011;62686;48.984;8.394;2023-02-28T11:27:43;8.07;;;6.43;;
38865;SDS011;62686;48.984;8.394;2023-02-28T11:30:26;9.33;;;7.20;;
38865;SDS011;62686;48.984;8.394;2023-02-28T11:35:50;11.33;;;6.17;;
38865;SDS011;62686;48.984;8.394;2023-02-28T11:38:20;12.33;;;6.87;;
38865;SDS011;62686;48.984;8.394;2023-02-28T11:40:52;8.97;;;6.77;;
38865;SDS011;62686;48.984;8.394;2023-02-28T11:43:36;9.60;;;6.97;;
38865;SDS011;62686;48.984;8.394;2023-02-28T11:48:58;9.83;;;6.80;;
38865;SDS011;62686;48.984;8.394;2023-02-28T11:51:34;10.47;;;6.67;;
38865;SDS011;62686;48.984;8.394;2023-02-28T11:54:14;9.60;;;7.10;;
38865;SDS011;62686;48.984;8.394;2023-02-28T11:59:46;9.80;;;6.57;;
38865;SDS011;62686;48.984;8.394;2023-02-28T12:02:25;7.93;;;6.30;;
38865;SDS011;62686;48.984;8.394;2023-02-28T12:05:04;9.87;;;7.03;;
38865;SDS011;62686;48.984;8.394;2023-02-28T12:07:42;8.77;;;7.10;;
38865;SDS011;62686;48.984;8.394;2023-02-28T12:10:20;11.30;;;7.20;;
38865;SDS011;62686;48.984;8.394;2023-02-28T12:12:57;9.30;;;6.67;;
38865;SDS011;62686;48.984;8.394;2023-02-28T12:29:21;9.57;;;7.50;;
38865;SDS011;62686;48.984;8.394;2023-02-28T12:31:53;11.97;;;7.83;;
38865;SDS011;62686;48.984;8.394;2023-02-28T12:34:27;9.87;;;7.20;;
38865;SDS011;62686;48.984;8.394;2023-02-28T12:37:00;8.33;;;6.37;;
38865;SDS011;62686;48.984;8.394;2023-02-28T12:39:35;9.10;;;7.37;;
38865;SDS011;62686;48.984;8.394;2023-02-28T12:42:17;9.13;;;7.23;;
38865;SDS011;62686;48.984;8.394;2023-02-28T12:44:51;9.60;;;6.70;;
38865;SDS011;62686;48.984;8.394;2023-02-28T12:47:23;7.90;;;6.17;;
38865;SDS011;62686;48.984;8.394;2023-02-28T12:49:52;9.53;;;6.47;;
38865;SDS011;62686;48.984;8.394;2023-02-28T12:52:25;8.30;;;6.43;;
38865;SDS011;62686;48.984;8.394;2023-02-28T12:55:03;8.57;;;6.30;;
38865;SDS011;62686;48.984;8.394;2023-02-28T12:57:36;7.33;;;6.27;;
38865;SDS011;62686;48.984;8.394;2023-02-28T13:38:17;9.33;;;7.33;;
38865;SDS011;62686;48.984;8.394;2023-02-28T13:44:02;9.47;;;7.13;;
38865;SDS011;62686;48.984;8.394;2023-02-28T13:46:31;9.93;;;7.67;;
38865;SDS011;62686;48.984;8.394;2023-02-28T13:51:46;11.17;;;7.87;;
38865;SDS011;62686;48.984;8.394;2023-02-28T13:54:23;11.43;;;7.57;;
38865;SDS011;62686;48.984;8.394;2023-02-28T13:57:05;10.97;;;7.37;;
38865;SDS011;62686;48.984;8.394;2023-02-28T14:05:27;10.20;;;7.53;;
38865;SDS011;62686;48.984;8.394;2023-02-28T14:11:02;11.80;;;7.97;;
38865;SDS011;62686;48.984;8.394;2023-02-28T14:13:39;10.23;;;7.83;;
38865;SDS011;62686;48.984;8.394;2023-02-28T14:16:13;10.50;;;7.73;;
38865;SDS011;62686;48.984;8.394;2023-02-28T14:18:48;10.77;;;8.07;;
38865;SDS011;62686;48.984;8.394;2023-02-28T14:21:22;9.47;;;7.77;;
38865;SDS011;62686;48.984;8.394;2023-02-28T14:24:10;11.90;;;8.37;;
38865;SDS011;62686;48.984;8.394;2023-02-28T14:27:03;10.70;;;7.93;;
38865;SDS011;62686;48.984;8.394;2023-02-28T14:29:45;11.10;;;7.90;;
38865;SDS011;62686;48.984;8.394;2023-02-28T14:32:27;9.00;;;7.60;;
38865;SDS011;62686;48.984;8.394;2023-02-28T14:35:02;10.47;;;7.60;;
38865;SDS011;62686;48.984;8.394;2023-02-28T14:37:40;9.80;;;7.40;;
38865;SDS011;62686;48.984;8.394;2023-02-28T14:40:14;9.63;;;7.50;;
38865;SDS011;62686;48.984;8.394;2023-02-28T14:42:48;11.77;;;8.57;;
38865;SDS011;62686;48.984;8.394;2023-02-28T14:45:23;10.23;;;7.90;;
38865;SDS011;62686;48.984;8.394;2023-02-28T14:47:52;10.20;;;8.47;;
38865;SDS011;62686;48.984;8.394;2023-02-28T14:50:21;11.27;;;8.47;;
38865;SDS011;62686;48.984;8.394;2023-02-28T14:52:51;8.57;;;7.37;;
38865;SDS011;62686;48.984;8.394;2023-02-28T14:55:23;10.20;;;8.20;;
38865;SDS011;62686;48.984;8.394;2023-02-28T14:57:55;11.07;;;8.47;;
38865;SDS011;62686;48.984;8.394;2023-02-28T15:00:25;9.30;;;7.70;;
38865;SDS011;62686;48.984;8.394;2023-02-28T15:02:55;15.63;;;8.40;;
38865;SDS011;62686;48.984;8.394;2023-02-28T15:05:26;12.40;;;7.97;;
38865;SDS011;62686;48.984;8.394;2023-02-28T15:08:04;9.37;;;8.07;;
38865;SDS011;62686;48.984;8.394;2023-02-28T15:10:34;10.40;;;8.10;;
38865;SDS011;62686;48.984;8.394;2023-02-28T15:13:04;12.87;;;8.63;;
38865;SDS011;62686;48.984;8.394;2023-02-28T15:15:42;11.73;;;9.07;;
38865;SDS011;62686;48.984;8.394;2023-02-28T15:18:31;9.93;;;8.13;;
38865;SDS011;62686;48.984;8.394;2023-02-28T15:21:10;12.00;;;8.57;;
38865;SDS011;62686;48.984;8.394;2023-02-28T15:23:43;10.70;;;8.57;;
38865;SDS011;62686;48.984;8.394;2023-02-28T15:26:15;11.47;;;9.03;;
38865;SDS011;62686;48.984;8.394;2023-02-28T15:28:48;12.87;;;9.27;;
38865;SDS011;62686;48.984;8.394;2023-02-28T15:31:19;18.00;;;8.73;;
38865;SDS011;62686;48.984;8.394;2023-02-28T15:33:55;12.93;;;8.67;;
38865;SDS011;62686;48.984;8.394;2023-02-28T15:36:26;11.63;;;8.83;;
38865;SDS011;62686;48.984;8.394;2023-02-28T15:38:58;12.43;;;9.40;;
38865;SDS011;62686;48.984;8.394;2023-02-28T15:41:39;10.83;;;8.63;;
38865;SDS011;62686;48.984;8.394;2023-02-28T15:44:16;10.53;;;8.10;;
38865;SDS011;62686;48.984;8.394;2023-02-28T15:46:53;13.63;;;8.87;;
38865;SDS011;62686;48.984;8.394;2023-02-28T15:49:24;11.57;;;8.10;;
38865;SDS011;62686;48.984;8.394;2023-02-28T17:43:47;13.17;;;9.53;;
38865;SDS011;62686;48.984;8.394;2023-02-28T17:46:18;12.43;;;9.90;;
38865;SDS011;62686;48.984;8.394;2023-02-28T17:48:48;14.40;;;10.40;;
38865;SDS011;62686;48.984;8.394;2023-02-28T17:51:18;12.73;;;9.73;;
38865;SDS011;62686;48.984;8.394;2023-02-28T17:53:50;11.63;;;9.17;;
38865;SDS011;62686;48.984;8.394;2023-02-28T17:56:18;13.30;;;10.13;;
38865;SDS011;62686;48.984;8.394;2023-02-28T17:58:51;13.00;;;9.77;;
38865;SDS011;62686;48.984;8.394;2023-02-28T18:01:20;13.77;;;9.20;;
38865;SDS011;62686;48.984;8.394;2023-02-28T18:03:50;13.00;;;9.57;;
38865;SDS011;62686;48.984;8.394;2023-02-28T18:06:19;12.93;;;9.77;;
38865;SDS011;62686;48.984;8.394;2023-02-28T18:08:50;13.10;;;10.20;;
38865;SDS011;62686;48.984;8.394;2023-02-28T18:11:19;12.90;;;10.27;;
38865;SDS011;62686;48.984;8.394;2023-02-28T18:13:50;14.53;;;10.90;;
38865;SDS011;62686;48.984;8.394;2023-02-28T18:16:22;12.93;;;9.47;;
38865;SDS011;62686;48.984;8.394;2023-02-28T18:18:50;12.07;;;9.33;;
38865;SDS011;62686;48.984;8.394;2023-02-28T18:21:18;16.20;;;9.87;;
38865;SDS011;62686;48.984;8.394;2023-02-28T18:23:46;11.40;;;8.97;;
38865;SDS011;62686;48.984;8.394;2023-02-28T18:26:16;12.77;;;10.17;;
38865;SDS011;62686;48.984;8.394;2023-02-28T18:28:45;13.93;;;9.80;;
38865;SDS011;62686;48.984;8.394;2023-02-28T18:31:16;15.83;;;10.17;;
38865;SDS011;62686;48.984;8.394;2023-02-28T18:33:47;12.23;;;9.33;;
38865;SDS011;62686;48.984;8.394;2023-02-28T18:36:19;12.90;;;9.87;;
38865;SDS011;62686;48.984;8.394;2023-02-28T18:38:48;15.30;;;10.97;;
38865;SDS011;62686;48.984;8.394;2023-02-28T18:41:17;13.60;;;10.80;;
38865;SDS011;62686;48.984;8.394;2023-02-28T18:43:47;14.70;;;10.77;;
38865;SDS011;62686;48.984;8.394;2023-02-28T18:46:19;12.83;;;10.13;;
38865;SDS011;62686;48.984;8.394;2023-02-28T18:48:48;17.37;;;10.30;;
38865;SDS011;62686;48.984;8.394;2023-02-28T18:51:17;14.47;;;10.57;;
38865;SDS011;62686;48.984;8.394;2023-02-28T18:53:47;13.67;;;9.93;;
38865;SDS011;62686;48.984;8.394;2023-02-28T18:56:16;15.43;;;11.23;;
38865;SDS011;62686;48.984;8.394;2023-02-28T18:58:46;14.43;;;10.43;;
38865;SDS011;62686;48.984;8.394;2023-02-28T19:01:15;15.33;;;10.40;;
38865;SDS011;62686;48.984;8.394;2023-02-28T19:03:48;12.93;;;10.60;;
38865;SDS011;62686;48.984;8.394;2023-02-28T19:06:17;16.40;;;11.00;;
38865;SDS011;62686;48.984;8.394;2023-02-28T19:08:46;14.90;;;10.80;;
38865;SDS011;62686;48.984;8.394;2023-02-28T19:11:16;16.30;;;10.70;;
38865;SDS011;62686;48.984;8.394;2023-02-28T19:13:46;14.97;;;10.73;;
38865;SDS011;62686;48.984;8.394;2023-02-28T19:16:15;14.30;;;10.57;;
38865;SDS011;62686;48.984;8.394;2023-02-28T19:18:45;15.23;;;11.10;;
38865;SDS011;62686;48.984;8.394;2023-02-28T19:21:16;16.40;;;10.80;;
38865;SDS011;62686;48.984;8.394;2023-02-28T19:23:45;16.87;;;10.77;;
38865;SDS011;62686;48.984;8.394;2023-02-28T19:26:15;15.27;;;11.13;;
38865;SDS011;62686;48.984;8.394;2023-02-28T19:28:45;16.33;;;11.43;;
38865;SDS011;62686;48.984;8.394;2023-02-28T19:31:15;14.87;;;11.67;;
38865;SDS011;62686;48.984;8.394;2023-02-28T19:33:45;14.30;;;11.33;;
38865;SDS011;62686;48.984;8.394;2023-02-28T19:36:15;15.90;;;10.63;;
38865;SDS011;62686;48.984;8.394;2023-02-28T19:38:43;14.80;;;10.37;;
38865;SDS011;62686;48.984;8.394;2023-02-28T19:41:12;16.50;;;11.40;;